Bookmark and Share
Track history (hours):
 

Guia

Last reported at 2013-Aug-10 05:32 UTC. Time now 2014-Apr-18 08:18 UTC.
Position N 37°01' E 026°07'.
Warning: this ship's position is months out of date.

Length 27 m.

Type: Other ship. MMSI: 248765000.

NotesDate/timePositionNaut miles runAvg speedWind from/ knotsBaromVisibWave heightAir tempDewpointWater temp
2013-Aug-10 05:32N 37°01' E 026°07'9 8.8
2013-Aug-10 04:33N 36°56' E 025°58'8 8.2
2013-Aug-10 03:33N 36°51' E 025°50'1 1.0
2013-Aug-10 02:14N 36°50' E 025°51'0 0.0
2013-Aug-10 01:32N 36°50' E 025°51'0 0.0
2013-Aug-10 00:32N 36°50' E 025°51'0 0.0
2013-Aug-09 23:20N 36°50' E 025°51'0 0.0
2013-Aug-09 22:32N 36°50' E 025°51'0 0.0
2013-Aug-09 21:26N 36°50' E 025°51'0 0.0
2013-Aug-09 20:26N 36°50' E 025°51'0 0.0
2013-Aug-09 19:32N 36°50' E 025°51'0 0.0
2013-Aug-09 18:08N 36°50' E 025°51'0 0.0
2013-Aug-09 17:32N 36°50' E 025°51'0 0.0
2013-Aug-09 16:26N 36°50' E 025°51'3 1.5
2013-Aug-09 14:33N 36°50' E 025°48'7 7.0
2013-Aug-09 13:31N 36°50' E 025°39'6 6.0
2013-Aug-09 12:31N 36°51' E 025°32'0 0.1
2013-Aug-09 11:31N 36°51' E 025°32'0 0.0
2013-Aug-09 10:31N 36°51' E 025°32'0 0.0
2013-Aug-09 09:31N 36°51' E 025°32'0 0.0
2013-Aug-09 08:25N 36°51' E 025°32'0 0.0
2013-Aug-09 07:31N 36°51' E 025°32'0 0.0
2013-Aug-09 06:31N 36°51' E 025°32'0 0.0
2013-Aug-09 05:25N 36°51' E 025°32'0 0.0
2013-Aug-09 04:28N 36°51' E 025°32'0 0.0
2013-Aug-09 03:28N 36°51' E 025°32'0 0.0
2013-Aug-09 02:31N 36°51' E 025°32'0 0.0
2013-Aug-09 01:31N 36°51' E 025°32'0 0.0
2013-Aug-09 00:31N 36°51' E 025°32'0 0.0
2013-Aug-08 23:31N 36°51' E 025°32'0 0.0
2013-Aug-08 22:19N 36°51' E 025°32'0 0.0
2013-Aug-08 21:10N 36°51' E 025°32'0 0.0
2013-Aug-08 20:13N 36°51' E 025°32'0 0.0
2013-Aug-08 19:28N 36°51' E 025°32'0 0.0
2013-Aug-08 18:25N 36°51' E 025°32'0 0.0
2013-Aug-08 17:30N 36°51' E 025°32'0 0.0
2013-Aug-08 16:30N 36°51' E 025°32'0 0.0
2013-Aug-08 15:30N 36°51' E 025°32'0 0.0
2013-Aug-08 14:31N 36°51' E 025°32'0 0.0
2013-Aug-08 13:31N 36°51' E 025°32'0 0.0
2013-Aug-08 12:28N 36°51' E 025°32'0 0.0
2013-Aug-08 11:25N 36°51' E 025°32'0 0.0
2013-Aug-08 10:31N 36°51' E 025°32'0 0.0
2013-Aug-08 09:31N 36°51' E 025°32'0 0.0
2013-Aug-08 08:19N 36°51' E 025°32'4 3.8
2013-Aug-08 07:17N 36°53' E 025°27'6 8.8
2013-Aug-08 06:33N 36°58' E 025°22'9 8.7
2013-Aug-08 05:33N 37°06' E 025°19'8 8.5
2013-Aug-08 04:33N 37°15' E 025°20'8 8.1
2013-Aug-08 03:31N 37°23' E 025°21'2 1.8
2013-Aug-08 02:30N 37°25' E 025°21'0 0.0
2013-Aug-08 01:30N 37°25' E 025°21'0 0.0
2013-Aug-08 00:30N 37°25' E 025°21'0 0.0
2013-Aug-07 23:24N 37°25' E 025°21'0 0.0
2013-Aug-07 22:30N 37°25' E 025°21'0 0.0
2013-Aug-07 21:30N 37°25' E 025°21'0 0.0
2013-Aug-07 20:27N 37°25' E 025°21'0 0.0
2013-Aug-07 19:30N 37°25' E 025°21'0 0.0
2013-Aug-07 18:30N 37°25' E 025°21'0 0.0
2013-Aug-07 17:30N 37°25' E 025°21'0 0.0
2013-Aug-07 16:24N 37°25' E 025°21'0 0.0
2013-Aug-07 15:24N 37°25' E 025°21'0 0.0
2013-Aug-07 14:22N 37°25' E 025°21'0 0.0
2013-Aug-07 13:28N 37°25' E 025°21'0 0.0
2013-Aug-07 12:10N 37°25' E 025°21'0 0.0
2013-Aug-07 11:33N 37°25' E 025°21'0 0.0
2013-Aug-07 10:33N 37°25' E 025°21'0 0.0
2013-Aug-07 09:33N 37°25' E 025°21'0 0.0
2013-Aug-07 08:33N 37°25' E 025°21'0 0.0
2013-Aug-07 07:21N 37°25' E 025°21'0 0.0
2013-Aug-07 06:33N 37°25' E 025°21'0 0.0
2013-Aug-07 05:33N 37°25' E 025°21'0 0.0
2013-Aug-07 04:33N 37°25' E 025°21'0 0.0
2013-Aug-07 03:33N 37°25' E 025°21'0 0.0
2013-Aug-07 02:33N 37°25' E 025°21'0 0.0
2013-Aug-07 01:33N 37°25' E 025°21'0 0.0
2013-Aug-07 00:33N 37°25' E 025°21'0 0.0
2013-Aug-06 23:33N 37°25' E 025°21'0 0.0
2013-Aug-06 22:33N 37°25' E 025°21'0 0.0
2013-Aug-06 21:27N 37°25' E 025°21'0 0.0
2013-Aug-06 20:33N 37°25' E 025°21'0 0.0
2013-Aug-06 19:33N 37°25' E 025°21'0 0.0
2013-Aug-06 18:03N 37°25' E 025°21'0 0.0
2013-Aug-06 17:03N 37°25' E 025°21'0 0.0
2013-Aug-06 16:33N 37°25' E 025°21'0 0.0
2013-Aug-06 15:33N 37°25' E 025°21'0 0.0
2013-Aug-06 14:15N 37°25' E 025°21'0 0.0
2013-Aug-06 13:27N 37°25' E 025°21'0 0.0
2013-Aug-06 12:21N 37°25' E 025°21'0 0.0
2013-Aug-06 11:27N 37°25' E 025°21'0 0.0
2013-Aug-06 10:33N 37°25' E 025°21'0 0.0
2013-Aug-06 09:33N 37°25' E 025°21'0 0.0
2013-Aug-06 08:15N 37°25' E 025°21'0 0.2
2013-Aug-06 07:33N 37°25' E 025°20'4 4.4
2013-Aug-06 06:32N 37°21' E 025°18'6 6.5
2013-Aug-06 05:33N 37°14' E 025°16'6 6.1
2013-Aug-06 04:32N 37°08' E 025°14'0 0.1
2013-Aug-06 03:21N 37°08' E 025°14'0 0.0
2013-Aug-06 02:33N 37°08' E 025°14'0 0.0
2013-Aug-06 01:33N 37°08' E 025°14'0 0.0
2013-Aug-06 00:31N 37°08' E 025°14'0 0.0
2013-Aug-05 23:31N 37°08' E 025°14'0 0.0
2013-Aug-05 22:31N 37°08' E 025°14'0 0.0
2013-Aug-05 21:13N 37°08' E 025°14'0 0.0
2013-Aug-05 20:31N 37°08' E 025°14'0 0.0
2013-Aug-05 19:31N 37°08' E 025°14'0 0.0
2013-Aug-05 18:31N 37°08' E 025°14'0 0.0
2013-Aug-05 17:25N 37°08' E 025°14'0 0.0
2013-Aug-05 16:31N 37°08' E 025°14'0 0.0
2013-Aug-05 14:31N 37°08' E 025°14'0 0.0
2013-Aug-05 13:31N 37°08' E 025°14'0 0.0
2013-Aug-05 12:19N 37°08' E 025°14'0 0.0
2013-Aug-05 11:13N 37°08' E 025°14'0 0.0
2013-Aug-05 09:31N 37°08' E 025°14'0 0.0
2013-Aug-05 08:31N 37°08' E 025°14'4 4.0
2013-Aug-05 07:29N 37°11' E 025°17'5 5.1
2013-Aug-05 06:33N 37°07' E 025°18'6 5.7
2013-Aug-05 05:33N 37°01' E 025°18'5 4.5
2013-Aug-05 04:33N 36°57' E 025°17'7 6.9
2013-Aug-05 03:33N 36°59' E 025°09'1 1.2
2013-Aug-05 02:28N 36°60' E 025°07'0 0.0
2013-Aug-05 01:04N 36°60' E 025°07'0 0.0
2013-Aug-04 23:28N 36°60' E 025°07'0 0.0
2013-Aug-04 22:22N 36°60' E 025°07'0 0.0
2013-Aug-04 21:28N 36°60' E 025°07'0 0.0
2013-Aug-04 20:28N 36°60' E 025°07'0 0.0
2013-Aug-04 19:28N 36°60' E 025°07'0 0.0
2013-Aug-04 16:22N 36°60' E 025°07'0 0.0
2013-Aug-04 15:28N 36°60' E 025°07'0 0.0
2013-Aug-04 14:31N 36°60' E 025°07'0 0.0
2013-Aug-04 13:31N 36°60' E 025°07'3 2.9
2013-Aug-04 12:33N 36°57' E 025°06'4 4.0
2013-Aug-04 11:26N 36°57' E 025°00'0 0.0
2013-Aug-04 10:26N 36°57' E 025°00'0 0.0
2013-Aug-04 09:23N 36°57' E 025°00'0 0.0
2013-Aug-04 08:32N 36°57' E 025°00'0 0.0
2013-Aug-04 07:26N 36°57' E 025°00'0 0.1
2013-Aug-04 06:33N 36°57' E 025°00'7 7.0
2013-Aug-04 05:31N 36°60' E 024°51'8 8.0
2013-Aug-04 04:33N 37°03' E 024°43'9 8.6
2013-Aug-04 03:33N 37°07' E 024°33'2 0.1
2013-Aug-03 09:14N 37°08' E 024°31'0 0.1
2013-Aug-03 06:18N 37°08' E 024°32'54 1.1
2013-Aug-01 04:33N 37°46' E 023°44'8 8.2
2013-Aug-01 03:31N 37°54' E 023°40'2 0.2
2013-Jul-31 17:22N 37°56' E 023°39'0 0.0
2013-Jul-31 16:20N 37°56' E 023°39'0 0.0
2013-Jul-31 15:25N 37°56' E 023°39'  

Dump ship's entire track history

sailing weather and tide predictions

Guia — 9HB2060 — position and weather